createdAt,value
2023-01-25T00:02:16.084Z,4.30
2023-01-25T00:04:50.956Z,4.30
2023-01-25T00:07:23.506Z,4.30
2023-01-25T00:12:50.366Z,4.20
2023-01-25T00:15:22.563Z,4.20
2023-01-25T00:17:55.346Z,4.20
2023-01-25T00:20:27.689Z,4.20
2023-01-25T00:23:00.103Z,4.30
2023-01-25T00:25:32.848Z,4.30
2023-01-25T00:28:05.253Z,4.30
2023-01-25T00:33:16.018Z,4.30
2023-01-25T00:35:49.657Z,4.30
2023-01-25T00:38:34.191Z,4.30
2023-01-25T00:41:08.736Z,4.40
2023-01-25T00:43:41.014Z,4.40
2023-01-25T00:46:17.075Z,4.40
2023-01-25T00:48:54.214Z,4.40
2023-01-25T00:51:26.371Z,4.40
2023-01-25T00:53:59.423Z,4.30
2023-01-25T00:56:31.754Z,4.30
2023-01-25T00:59:04.253Z,4.30
2023-01-25T01:01:37.012Z,4.30
2023-01-25T01:04:09.104Z,4.20
2023-01-25T01:06:43.098Z,4.20
2023-01-25T01:09:17.960Z,4.20
2023-01-25T01:11:50.378Z,4.20
2023-01-25T01:14:24.399Z,4.20
2023-01-25T01:16:58.004Z,4.20
2023-01-25T01:19:31.228Z,4.20
2023-01-25T01:22:03.515Z,4.10
2023-01-25T01:24:36.227Z,4.20
2023-01-25T01:27:08.890Z,4.10
2023-01-25T01:29:41.161Z,4.20
2023-01-25T01:32:13.346Z,4.20
2023-01-25T01:34:46.194Z,4.10
2023-01-25T01:37:18.103Z,4.10
2023-01-25T01:39:52.568Z,4.10
2023-01-25T01:42:24.503Z,4.10
2023-01-25T01:44:57.772Z,4.10
2023-01-25T01:47:45.907Z,4.10
2023-01-25T01:50:24.095Z,4.10
2023-01-25T01:52:57.462Z,4.10
2023-01-25T01:55:30.463Z,4.10
2023-01-25T01:58:03.687Z,4.10
2023-01-25T02:00:40.481Z,4.10
2023-01-25T02:03:16.827Z,4.10
2023-01-25T02:06:17.491Z,4.10
2023-01-25T02:08:50.048Z,4.00
2023-01-25T02:11:23.174Z,4.00
2023-01-25T02:13:57.310Z,4.00
2023-01-25T02:16:30.304Z,4.00
2023-01-25T02:19:03.675Z,4.00
2023-01-25T02:21:44.847Z,4.00
2023-01-25T02:24:27.858Z,4.00
2023-01-25T02:27:00.030Z,4.00
2023-01-25T02:29:33.849Z,4.00
2023-01-25T02:32:06.838Z,3.90
2023-01-25T02:34:39.587Z,3.90
2023-01-25T02:37:15.133Z,4.00
2023-01-25T02:42:20.444Z,3.90
2023-01-25T02:44:53.734Z,4.00
2023-01-25T02:47:25.632Z,3.90
2023-01-25T02:49:58.393Z,3.90
2023-01-25T02:52:30.353Z,4.00
2023-01-25T02:55:03.803Z,4.00
2023-01-25T02:57:35.932Z,4.00
2023-01-25T03:00:09.478Z,4.10
2023-01-25T03:02:41.493Z,4.10
2023-01-25T03:05:14.372Z,4.10
2023-01-25T03:07:46.335Z,4.10
2023-01-25T03:12:52.141Z,4.00
2023-01-25T03:15:27.695Z,4.00
2023-01-25T03:18:02.842Z,4.00
2023-01-25T03:20:35.488Z,4.00
2023-01-25T03:23:08.230Z,4.00
2023-01-25T03:25:40.560Z,3.90
2023-01-25T03:28:18.443Z,3.80
2023-01-25T03:30:54.134Z,3.80
2023-01-25T03:33:26.237Z,3.90
2023-01-25T03:35:59.800Z,3.90
2023-01-25T03:38:33.004Z,3.90
2023-01-25T03:41:06.144Z,3.90
2023-01-25T03:43:40.343Z,3.90
2023-01-25T03:46:12.375Z,3.90
2023-01-25T03:48:45.509Z,3.80
2023-01-25T03:51:17.429Z,3.80
2023-01-25T03:53:50.300Z,3.80
2023-01-25T03:56:24.294Z,3.80
2023-01-25T03:59:04.000Z,3.80
2023-01-25T04:01:38.088Z,3.80
2023-01-25T04:04:10.309Z,3.80
2023-01-25T04:06:45.191Z,3.70
2023-01-25T04:09:17.312Z,3.80
2023-01-25T04:11:55.048Z,3.80
2023-01-25T04:14:43.308Z,3.80
2023-01-25T04:17:20.451Z,3.80
2023-01-25T04:22:53.492Z,3.70
2023-01-25T04:25:29.601Z,3.80
2023-01-25T04:30:36.758Z,3.80
2023-01-25T04:33:08.735Z,3.80
2023-01-25T04:35:41.510Z,3.80
2023-01-25T04:38:14.430Z,3.80
2023-01-25T04:40:49.452Z,3.80
2023-01-25T04:43:22.511Z,3.80
2023-01-25T04:46:03.206Z,3.80
2023-01-25T04:48:37.051Z,3.80
2023-01-25T04:51:12.385Z,3.80
2023-01-25T04:56:17.598Z,3.80
2023-01-25T04:58:57.606Z,3.80
2023-01-25T05:04:09.404Z,3.80
2023-01-25T05:06:46.018Z,3.80
2023-01-25T05:09:18.511Z,3.80
2023-01-25T05:11:53.366Z,3.70
2023-01-25T05:14:45.683Z,3.70
2023-01-25T05:17:18.885Z,4.70
2023-01-25T05:19:50.801Z,4.20
2023-01-25T05:22:26.848Z,4.00
2023-01-25T05:24:59.294Z,3.90
2023-01-25T05:27:31.823Z,3.80
2023-01-25T05:30:23.698Z,3.70
2023-01-25T05:33:05.181Z,3.70
2023-01-25T05:35:38.399Z,3.70
2023-01-25T05:38:10.905Z,3.80
2023-01-25T05:40:42.835Z,3.80
2023-01-25T05:43:15.620Z,3.90
2023-01-25T05:45:53.540Z,3.80
2023-01-25T05:48:26.408Z,3.80
2023-01-25T05:53:34.023Z,3.80
2023-01-25T05:56:08.635Z,3.80
2023-01-25T05:58:40.667Z,3.80
2023-01-25T06:01:13.542Z,3.70
2023-01-25T06:03:53.893Z,3.70
2023-01-25T06:06:28.453Z,3.80
2023-01-25T06:09:01.838Z,3.80
2023-01-25T06:11:34.752Z,3.80
2023-01-25T06:14:06.904Z,3.80
2023-01-25T06:16:39.724Z,3.70
2023-01-25T06:19:31.993Z,3.70
2023-01-25T06:22:24.888Z,3.70
2023-01-25T06:24:57.576Z,3.60
2023-01-25T06:27:29.903Z,3.70
2023-01-25T06:30:02.001Z,3.60
2023-01-25T06:35:09.603Z,3.70
2023-01-25T06:37:42.597Z,3.70
2023-01-25T06:40:14.829Z,3.70
2023-01-25T06:42:47.593Z,3.70
2023-01-25T06:45:20.005Z,3.70
2023-01-25T06:47:52.482Z,3.70
2023-01-25T06:50:27.946Z,3.70
2023-01-25T06:52:59.916Z,3.70
2023-01-25T06:55:35.638Z,3.70
2023-01-25T06:58:08.301Z,3.70
2023-01-25T07:00:41.016Z,3.70
2023-01-25T07:03:14.586Z,3.70
2023-01-25T07:05:46.441Z,3.60
2023-01-25T07:08:21.848Z,3.70
2023-01-25T07:11:00.055Z,3.70
2023-01-25T07:13:35.027Z,3.70
2023-01-25T07:16:11.284Z,3.70
2023-01-25T07:21:24.639Z,3.70
2023-01-25T07:24:01.762Z,3.70
2023-01-25T07:26:35.059Z,3.80
2023-01-25T07:29:07.874Z,3.70
2023-01-25T07:31:41.859Z,3.80
2023-01-25T07:34:18.652Z,3.80
2023-01-25T07:36:51.444Z,3.80
2023-01-25T07:47:28.784Z,3.90
2023-01-25T07:52:33.298Z,3.90
2023-01-25T08:00:13.432Z,3.90
2023-01-25T08:02:45.433Z,4.00
2023-01-25T08:05:17.989Z,4.00
2023-01-25T08:07:50.640Z,3.90
2023-01-25T08:10:23.391Z,3.90
2023-01-25T08:12:55.369Z,4.00
2023-01-25T08:15:27.936Z,4.00
2023-01-25T08:18:00.342Z,4.10
2023-01-25T08:20:32.857Z,4.10
2023-01-25T08:23:05.294Z,4.20
2023-01-25T08:25:39.891Z,4.10
2023-01-25T08:28:11.857Z,4.10
2023-01-25T08:30:56.397Z,4.20
2023-01-25T08:33:29.487Z,4.10
2023-01-25T08:36:02.278Z,4.20
2023-01-25T08:38:34.748Z,4.30
2023-01-25T08:41:16.987Z,4.20
2023-01-25T08:43:48.952Z,4.30
2023-01-25T08:46:23.237Z,4.30
2023-01-25T08:48:56.959Z,4.40
2023-01-25T08:51:31.770Z,4.50
2023-01-25T08:54:11.745Z,4.50
2023-01-25T09:01:50.429Z,4.30
2023-01-25T09:04:25.305Z,4.40
2023-01-25T09:06:57.917Z,4.30
2023-01-25T09:12:02.892Z,4.30
2023-01-25T09:14:34.888Z,4.30
2023-01-25T09:19:42.112Z,4.20
2023-01-25T09:22:14.775Z,4.20
2023-01-25T09:24:52.061Z,4.30
2023-01-25T09:27:24.740Z,4.20
2023-01-25T09:30:16.544Z,4.30
2023-01-25T09:32:51.195Z,4.20
2023-01-25T09:35:23.651Z,4.30
2023-01-25T09:38:06.239Z,4.30
2023-01-25T09:40:41.515Z,4.50
2023-01-25T09:43:41.804Z,4.50
2023-01-25T09:46:50.587Z,4.60
2023-01-25T09:50:13.925Z,4.60
2023-01-25T09:53:13.055Z,4.60
2023-01-25T09:55:51.307Z,4.60
2023-01-25T09:58:50.586Z,4.50
2023-01-25T10:01:50.178Z,4.50
2023-01-25T10:04:35.927Z,4.50
2023-01-25T10:07:26.561Z,4.50
2023-01-25T10:10:11.909Z,4.40
2023-01-25T10:15:23.754Z,4.60
2023-01-25T10:18:28.785Z,4.50
2023-01-25T10:21:29.500Z,4.60
2023-01-25T10:24:25.906Z,4.60
2023-01-25T10:27:33.411Z,4.60
2023-01-25T10:30:28.121Z,4.80
2023-01-25T10:33:11.391Z,4.80
2023-01-25T10:35:47.951Z,5.00
2023-01-25T10:38:45.765Z,5.00
2023-01-25T10:41:38.747Z,5.00
2023-01-25T10:44:22.290Z,5.00
2023-01-25T10:49:55.183Z,4.80
2023-01-25T10:52:30.580Z,4.80
2023-01-25T10:55:15.709Z,4.80
2023-01-25T10:57:59.356Z,4.90
2023-01-25T11:00:40.400Z,5.00
2023-01-25T11:03:22.048Z,4.90
2023-01-25T11:05:56.852Z,5.00
2023-01-25T11:08:39.763Z,4.90
2023-01-25T11:11:32.636Z,4.90
2023-01-25T11:14:18.761Z,4.90
2023-01-25T11:16:51.372Z,4.90
2023-01-25T11:19:31.936Z,5.00
2023-01-25T11:22:24.506Z,5.00
2023-01-25T11:24:56.499Z,5.10
2023-01-25T11:30:19.262Z,5.00
2023-01-25T11:32:52.163Z,5.10
2023-01-25T11:35:32.390Z,5.20
2023-01-25T11:38:18.746Z,5.20
2023-01-25T11:41:18.058Z,5.20
2023-01-25T11:44:44.863Z,5.20
2023-01-25T11:47:40.681Z,5.20
2023-01-25T11:50:34.366Z,5.20
2023-01-25T11:53:34.070Z,5.20
2023-01-25T11:56:31.282Z,5.30
2023-01-25T11:59:43.445Z,5.20
2023-01-25T12:03:03.061Z,5.20
2023-01-25T12:05:45.125Z,5.30
2023-01-25T12:08:45.914Z,5.30
2023-01-25T12:11:42.120Z,5.40
2023-01-25T12:14:44.195Z,5.50
2023-01-25T12:17:58.000Z,5.40
2023-01-25T12:20:41.835Z,5.40
2023-01-25T12:23:51.600Z,5.40
2023-01-25T12:26:37.510Z,5.50
2023-01-25T12:29:48.613Z,6.80
2023-01-25T12:32:59.493Z,5.40
2023-01-25T12:35:43.851Z,5.40
2023-01-25T12:39:01.038Z,5.50
2023-01-25T12:41:57.674Z,5.60
2023-01-25T12:44:43.686Z,5.70
2023-01-25T12:48:03.803Z,5.70
2023-01-25T12:50:42.932Z,5.60
2023-01-25T12:53:22.383Z,5.60
2023-01-25T12:55:56.004Z,5.70
2023-01-25T12:58:52.981Z,5.60
2023-01-25T13:01:38.924Z,5.60
2023-01-25T13:04:39.583Z,5.60
2023-01-25T13:07:44.764Z,5.50
2023-01-25T13:10:27.022Z,5.40
2023-01-25T13:13:05.536Z,5.40
2023-01-25T13:15:39.808Z,5.40
2023-01-25T13:18:33.931Z,5.40
2023-01-25T13:21:11.423Z,5.30
2023-01-25T13:23:50.540Z,5.30
2023-01-25T13:26:22.427Z,5.40
2023-01-25T13:29:00.689Z,5.50
2023-01-25T13:31:51.003Z,5.90
2023-01-25T13:34:53.947Z,5.40
2023-01-25T13:40:07.268Z,5.40
2023-01-25T13:42:40.326Z,5.50
2023-01-25T13:48:09.253Z,5.50
2023-01-25T13:50:52.737Z,5.40
2023-01-25T13:53:29.506Z,5.40
2023-01-25T13:56:03.295Z,5.40
2023-01-25T13:58:48.005Z,5.50
2023-01-25T14:01:23.990Z,5.40
2023-01-25T14:04:03.215Z,5.40
2023-01-25T14:06:40.012Z,5.40
2023-01-25T14:09:20.742Z,5.30
2023-01-25T14:12:01.557Z,5.30
2023-01-25T14:14:35.472Z,5.30
2023-01-25T14:17:22.352Z,5.30
2023-01-25T14:19:55.828Z,5.30
2023-01-25T14:22:31.678Z,5.30
2023-01-25T14:25:22.453Z,5.30
2023-01-25T14:27:57.850Z,5.20
2023-01-25T14:30:33.815Z,5.20
2023-01-25T14:33:44.749Z,5.10
2023-01-25T14:41:59.876Z,5.00
2023-01-25T14:44:34.369Z,5.10
2023-01-25T14:47:32.213Z,5.10
2023-01-25T14:50:37.019Z,5.10
2023-01-25T14:53:20.930Z,5.10
2023-01-25T14:55:53.656Z,4.90
2023-01-25T14:58:28.999Z,5.00
2023-01-25T15:01:03.639Z,5.00
2023-01-25T15:03:44.669Z,4.80
2023-01-25T15:06:17.365Z,4.80
2023-01-25T15:08:49.496Z,4.80
2023-01-25T15:11:46.546Z,4.80
2023-01-25T15:14:22.096Z,5.00
2023-01-25T15:16:56.398Z,4.90
2023-01-25T15:19:30.792Z,4.80
2023-01-25T15:22:05.541Z,4.90
2023-01-25T15:24:47.227Z,4.90
2023-01-25T15:27:22.762Z,5.00
2023-01-25T15:29:54.719Z,4.90
2023-01-25T15:32:27.255Z,4.80
2023-01-25T15:37:32.371Z,4.80
2023-01-25T15:40:05.040Z,4.70
2023-01-25T15:45:11.118Z,4.80
2023-01-25T15:50:19.094Z,4.60
2023-01-25T15:52:51.211Z,4.70
2023-01-25T15:55:27.365Z,4.60
2023-01-25T16:08:18.783Z,4.50
2023-01-25T16:10:51.135Z,4.50
2023-01-25T16:13:24.928Z,4.50
2023-01-25T16:15:57.372Z,4.50
2023-01-25T16:21:02.545Z,4.40
2023-01-25T16:23:36.978Z,4.40
2023-01-25T16:26:26.216Z,4.30
2023-01-25T16:31:33.392Z,4.30
2023-01-25T16:34:06.141Z,4.20
2023-01-25T16:36:39.605Z,4.20
2023-01-25T16:39:22.389Z,4.30
2023-01-25T16:41:56.408Z,4.20
2023-01-25T16:47:01.556Z,4.20
2023-01-25T16:49:33.768Z,4.10
2023-01-25T16:54:39.656Z,4.00
2023-01-25T16:57:20.200Z,4.00
2023-01-25T16:59:53.429Z,4.10
2023-01-25T17:02:25.682Z,4.00
2023-01-25T17:04:58.541Z,4.00
2023-01-25T17:07:30.916Z,4.00
2023-01-25T17:10:04.796Z,3.90
2023-01-25T17:12:37.272Z,3.90
2023-01-25T17:15:10.454Z,3.80
2023-01-25T17:17:42.330Z,3.70
2023-01-25T17:22:51.056Z,3.80
2023-01-25T17:25:24.445Z,3.80
2023-01-25T17:27:56.759Z,3.80
2023-01-25T17:30:28.714Z,3.80
2023-01-25T17:33:01.507Z,3.70
2023-01-25T17:35:36.470Z,3.70
2023-01-25T17:38:08.803Z,3.70
2023-01-25T17:40:41.581Z,3.70
2023-01-25T17:43:13.930Z,3.70
2023-01-25T17:51:02.820Z,3.70
2023-01-25T17:53:34.811Z,3.60
2023-01-25T17:56:08.932Z,3.70
2023-01-25T17:58:41.581Z,3.70
2023-01-25T18:01:23.955Z,3.70
2023-01-25T18:03:56.754Z,3.70
2023-01-25T18:06:31.711Z,3.60
2023-01-25T18:09:06.168Z,3.60
2023-01-25T18:11:41.171Z,3.70
2023-01-25T18:14:16.699Z,3.60
2023-01-25T18:19:23.288Z,5.20
2023-01-25T18:21:55.205Z,4.60
2023-01-25T18:24:35.747Z,4.10
2023-01-25T18:27:16.643Z,3.90
2023-01-25T18:30:01.360Z,3.80
2023-01-25T18:32:34.167Z,3.70
2023-01-25T18:35:06.281Z,3.70
2023-01-25T18:37:43.856Z,3.60
2023-01-25T18:40:17.509Z,3.60
2023-01-25T18:42:50.648Z,3.60
2023-01-25T18:47:59.536Z,3.60
2023-01-25T18:53:27.807Z,3.50
2023-01-25T18:56:02.551Z,3.50
2023-01-25T18:58:37.409Z,3.50
2023-01-25T19:01:18.217Z,3.50
2023-01-25T19:03:51.942Z,3.50
2023-01-25T19:06:25.247Z,3.50
2023-01-25T19:08:58.891Z,3.50
2023-01-25T19:11:30.971Z,3.40
2023-01-25T19:14:03.734Z,3.40
2023-01-25T19:16:35.695Z,3.50
2023-01-25T19:19:10.131Z,3.50
2023-01-25T19:24:19.564Z,3.20
2023-01-25T19:26:54.189Z,3.30
2023-01-25T19:29:28.927Z,3.30
2023-01-25T19:32:01.860Z,3.30
2023-01-25T19:34:33.772Z,3.30
2023-01-25T19:37:07.313Z,3.40
2023-01-25T19:39:39.633Z,3.40
2023-01-25T19:42:11.568Z,4.00
2023-01-25T19:44:44.867Z,3.60
2023-01-25T19:47:17.265Z,3.50
2023-01-25T19:49:49.151Z,3.40
2023-01-25T19:52:22.354Z,3.40
2023-01-25T19:54:57.466Z,3.40
2023-01-25T19:57:30.512Z,3.40
2023-01-25T20:00:02.490Z,3.30
2023-01-25T20:02:38.906Z,3.30
2023-01-25T20:05:11.588Z,3.20
2023-01-25T20:07:43.718Z,3.20
2023-01-25T20:15:22.110Z,3.20
2023-01-25T20:17:55.676Z,3.20
2023-01-25T20:20:28.263Z,3.10
2023-01-25T20:23:00.142Z,3.20
2023-01-25T20:25:33.072Z,3.20
2023-01-25T20:28:05.127Z,3.20
2023-01-25T20:30:37.925Z,3.20
2023-01-25T20:35:43.977Z,3.20
2023-01-25T20:38:16.496Z,3.20
2023-01-25T20:40:49.580Z,3.20
2023-01-25T20:43:23.535Z,3.20
2023-01-25T20:45:57.810Z,3.30
2023-01-25T20:48:36.237Z,3.30
2023-01-25T20:51:12.795Z,3.30
2023-01-25T20:53:46.058Z,3.30
2023-01-25T20:56:19.274Z,3.30
2023-01-25T20:58:53.291Z,3.30
2023-01-25T21:01:29.573Z,3.20
2023-01-25T21:04:02.858Z,3.20
2023-01-25T21:06:35.254Z,3.20
2023-01-25T21:09:08.147Z,3.10
2023-01-25T21:11:40.539Z,3.20
2023-01-25T21:16:45.312Z,3.20
2023-01-25T21:19:18.187Z,3.20
2023-01-25T21:21:50.866Z,3.10
2023-01-25T21:24:22.848Z,3.10
2023-01-25T21:26:55.716Z,3.10
2023-01-25T21:29:29.066Z,3.10
2023-01-25T21:32:04.773Z,3.10
2023-01-25T21:34:37.652Z,3.00
2023-01-25T21:37:10.400Z,3.00
2023-01-25T21:39:42.428Z,3.00
2023-01-25T21:42:14.795Z,3.00
2023-01-25T21:45:05.160Z,2.90
2023-01-25T21:47:37.916Z,3.00
2023-01-25T21:50:29.365Z,3.00
2023-01-25T21:58:07.638Z,2.90
2023-01-25T22:00:39.607Z,3.00
2023-01-25T22:03:12.424Z,3.00
2023-01-25T22:05:44.550Z,3.00
2023-01-25T22:08:17.890Z,3.00
2023-01-25T22:13:22.961Z,3.00
2023-01-25T22:16:02.158Z,3.00
2023-01-25T22:18:39.461Z,3.00
2023-01-25T22:21:18.080Z,3.00
2023-01-25T22:23:52.119Z,3.00
2023-01-25T22:26:26.903Z,3.00
2023-01-25T22:29:03.660Z,3.00
2023-01-25T22:34:09.440Z,3.00
2023-01-25T22:36:41.333Z,3.00
2023-01-25T22:39:15.318Z,3.10
2023-01-25T22:41:47.344Z,3.00
2023-01-25T22:44:20.274Z,3.00
2023-01-25T22:46:53.776Z,2.90
2023-01-25T22:49:26.591Z,2.80
2023-01-25T22:54:31.915Z,2.70
2023-01-25T22:57:03.931Z,2.80
2023-01-25T22:59:36.677Z,2.80
2023-01-25T23:02:08.612Z,2.80
2023-01-25T23:04:41.379Z,2.80
2023-01-25T23:12:23.869Z,2.80
2023-01-25T23:14:59.420Z,2.80
2023-01-25T23:17:50.252Z,2.80
2023-01-25T23:20:22.173Z,2.70
2023-01-25T23:22:54.894Z,2.70
2023-01-25T23:25:28.191Z,2.70
2023-01-25T23:28:00.104Z,2.80
2023-01-25T23:30:32.941Z,2.80
2023-01-25T23:33:04.966Z,2.70
2023-01-25T23:35:38.090Z,2.70
2023-01-25T23:38:15.967Z,2.70
2023-01-25T23:40:49.164Z,2.60
2023-01-25T23:43:21.710Z,2.70
2023-01-25T23:45:53.606Z,2.60
2023-01-25T23:48:27.461Z,2.60
2023-01-25T23:53:35.495Z,2.50
2023-01-25T23:56:13.907Z,2.50
2023-01-25T23:58:47.881Z,2.60
